createdAt,value
2018-10-21T00:00:34.551Z,33.67
2018-10-21T00:01:38.127Z,33.73
2018-10-21T00:02:41.746Z,36.23
2018-10-21T00:03:45.330Z,34.17
2018-10-21T00:04:48.984Z,36.97
2018-10-21T00:05:52.539Z,36.37
2018-10-21T00:06:56.174Z,32.43
2018-10-21T00:07:59.749Z,46.43
2018-10-21T00:09:04.464Z,34.80
2018-10-21T00:10:09.150Z,28.83
2018-10-21T00:11:12.759Z,31.57
2018-10-21T00:12:16.366Z,28.53
2018-10-21T00:13:19.959Z,30.07
2018-10-21T00:14:23.535Z,32.97
2018-10-21T00:15:27.282Z,26.33
2018-10-21T00:16:30.822Z,31.00
2018-10-21T00:17:34.486Z,23.47
2018-10-21T00:18:38.087Z,28.67
2018-10-21T00:19:41.703Z,24.87
2018-10-21T00:20:45.400Z,25.10
2018-10-21T00:21:48.965Z,28.17
2018-10-21T00:22:52.770Z,21.57
2018-10-21T00:23:56.435Z,27.43
2018-10-21T00:25:00.043Z,25.20
2018-10-21T00:26:03.822Z,26.60
2018-10-21T00:27:07.563Z,30.70
2018-10-21T00:28:11.087Z,25.77
2018-10-21T00:29:14.751Z,22.70
2018-10-21T00:30:18.430Z,24.67
2018-10-21T00:31:21.967Z,20.03
2018-10-21T00:32:30.879Z,23.67
2018-10-21T00:33:34.517Z,29.63
2018-10-21T00:34:38.103Z,24.40
2018-10-21T00:35:41.775Z,25.90
2018-10-21T00:36:45.405Z,25.47
2018-10-21T00:37:48.978Z,28.57
2018-10-21T00:38:52.574Z,25.37
2018-10-21T00:39:56.147Z,25.87
2018-10-21T00:40:59.752Z,20.43
2018-10-21T00:42:04.039Z,24.53
2018-10-21T00:43:07.584Z,22.70
2018-10-21T00:44:11.286Z,19.77
2018-10-21T00:45:14.948Z,20.57
2018-10-21T00:46:18.490Z,17.33
2018-10-21T00:47:22.122Z,18.90
2018-10-21T00:48:25.717Z,20.97
2018-10-21T00:49:29.286Z,16.40
2018-10-21T00:50:32.870Z,18.90
2018-10-21T00:51:36.459Z,18.30
2018-10-21T00:52:40.234Z,17.67
2018-10-21T00:53:43.822Z,20.13
2018-10-21T00:54:47.462Z,20.17
2018-10-21T00:55:51.023Z,19.70
2018-10-21T00:56:54.650Z,17.93
2018-10-21T00:57:58.183Z,22.83
2018-10-21T00:59:01.778Z,18.90
2018-10-21T01:00:07.547Z,17.20
2018-10-21T01:01:11.154Z,16.27
2018-10-21T01:02:14.755Z,17.33
2018-10-21T01:03:18.360Z,16.73
2018-10-21T01:04:21.944Z,14.33
2018-10-21T01:05:25.502Z,15.67
2018-10-21T01:06:29.106Z,16.97
2018-10-21T01:07:32.692Z,14.60
2018-10-21T01:08:36.278Z,17.23
2018-10-21T01:09:39.873Z,16.60
2018-10-21T01:10:43.695Z,17.77
2018-10-21T01:11:47.274Z,15.50
2018-10-21T01:12:50.849Z,14.47
2018-10-21T01:13:54.421Z,20.83
2018-10-21T01:14:58.003Z,15.33
2018-10-21T01:16:01.947Z,16.47
2018-10-21T01:17:05.774Z,15.70
2018-10-21T01:18:09.359Z,16.30
2018-10-21T01:19:13.007Z,16.97
2018-10-21T01:20:23.230Z,15.47
2018-10-21T01:21:26.843Z,14.00
2018-10-21T01:22:30.431Z,18.83
2018-10-21T01:23:34.125Z,14.40
2018-10-21T01:24:37.663Z,16.13
2018-10-21T01:25:41.228Z,15.83
2018-10-21T01:26:44.898Z,12.47
2018-10-21T01:27:48.435Z,20.00
2018-10-21T01:28:52.015Z,16.40
2018-10-21T01:29:55.669Z,13.57
2018-10-21T01:30:59.219Z,20.70
2018-10-21T01:32:02.790Z,15.37
2018-10-21T01:33:06.507Z,16.83
2018-10-21T01:34:10.083Z,14.23
2018-10-21T01:35:13.655Z,16.93
2018-10-21T01:36:17.475Z,15.37
2018-10-21T01:37:20.911Z,17.33
2018-10-21T01:38:24.552Z,15.97
2018-10-21T01:40:34.076Z,15.73
2018-10-21T01:41:37.671Z,17.00
2018-10-21T01:42:41.259Z,17.03
2018-10-21T01:43:44.842Z,15.70
2018-10-21T01:44:48.419Z,16.10
2018-10-21T01:45:52.055Z,17.17
2018-10-21T01:46:55.676Z,18.27
2018-10-21T01:48:00.369Z,17.77
2018-10-21T01:49:03.954Z,17.60
2018-10-21T01:50:07.544Z,16.07
2018-10-21T01:51:11.178Z,20.43
2018-10-21T01:52:14.718Z,18.67
2018-10-21T01:53:19.063Z,15.20
2018-10-21T01:54:25.883Z,17.87
2018-10-21T01:55:29.458Z,17.07
2018-10-21T01:56:33.046Z,20.53
2018-10-21T01:57:36.643Z,21.07
2018-10-21T01:58:40.231Z,16.53
2018-10-21T01:59:43.814Z,16.40
2018-10-21T02:00:47.415Z,17.70
2018-10-21T02:01:51.407Z,19.00
2018-10-21T02:02:55.700Z,21.40
2018-10-21T02:03:59.227Z,18.47
2018-10-21T02:05:02.905Z,17.80
2018-10-21T02:06:06.487Z,17.23
2018-10-21T02:07:10.074Z,17.47
2018-10-21T02:08:13.666Z,15.63
2018-10-21T02:09:17.380Z,16.37
2018-10-21T02:10:20.909Z,17.23
2018-10-21T02:11:24.467Z,14.40
2018-10-21T02:12:28.059Z,17.67
2018-10-21T02:13:31.643Z,14.07
2018-10-21T02:14:35.227Z,19.63
2018-10-21T02:15:38.823Z,20.93
2018-10-21T02:16:42.452Z,16.50
2018-10-21T02:17:46.031Z,20.40
2018-10-21T02:18:49.634Z,17.07
2018-10-21T02:19:53.223Z,15.70
2018-10-21T02:20:56.849Z,19.47
2018-10-21T02:22:00.659Z,13.40
2018-10-21T02:23:04.283Z,18.10
2018-10-21T02:24:07.891Z,17.47
2018-10-21T02:25:11.586Z,18.03
2018-10-21T02:26:15.209Z,18.73
2018-10-21T02:27:18.825Z,21.40
2018-10-21T02:28:22.327Z,24.57
2018-10-21T02:29:25.912Z,26.23
2018-10-21T02:30:30.616Z,32.93
2018-10-21T02:31:34.186Z,38.80
2018-10-21T02:32:37.789Z,33.90
2018-10-21T02:33:41.537Z,43.37
2018-10-21T02:34:44.991Z,55.20
2018-10-21T02:35:48.580Z,54.83
2018-10-21T02:36:52.172Z,55.27
2018-10-21T02:37:56.362Z,54.23
2018-10-21T02:38:59.998Z,53.43
2018-10-21T02:40:03.644Z,60.07
2018-10-21T02:41:19.525Z,56.10
2018-10-21T02:42:23.140Z,56.80
2018-10-21T02:43:26.751Z,51.93
2018-10-21T02:44:30.315Z,55.53
2018-10-21T02:45:33.891Z,57.77
2018-10-21T02:46:38.243Z,53.30
2018-10-21T02:47:41.804Z,52.60
2018-10-21T02:48:45.400Z,55.10
2018-10-21T02:49:48.994Z,54.47
2018-10-21T02:50:52.570Z,48.10
2018-10-21T02:52:01.506Z,53.97
2018-10-21T02:53:05.209Z,61.70
2018-10-21T02:54:09.208Z,53.40
2018-10-21T02:55:12.799Z,49.77
2018-10-21T02:56:16.359Z,57.77
2018-10-21T02:57:20.010Z,53.27
2018-10-21T02:58:23.535Z,62.60
2018-10-21T02:59:27.468Z,55.50
2018-10-21T03:00:31.036Z,59.07
2018-10-21T03:01:34.654Z,58.03
2018-10-21T03:02:38.444Z,65.47
2018-10-21T03:03:42.034Z,62.83
2018-10-21T03:04:45.627Z,64.87
2018-10-21T03:05:49.237Z,63.43
2018-10-21T03:06:53.065Z,64.63
2018-10-21T03:07:56.675Z,58.27
2018-10-21T03:09:00.323Z,60.93
2018-10-21T03:10:03.863Z,63.83
2018-10-21T03:11:07.647Z,72.73
2018-10-21T03:12:11.272Z,65.00
2018-10-21T03:13:14.832Z,63.50
2018-10-21T03:14:18.418Z,62.97
2018-10-21T03:15:21.990Z,73.53
2018-10-21T03:16:25.589Z,64.70
2018-10-21T03:17:29.187Z,72.33
2018-10-21T03:18:32.968Z,67.90
2018-10-21T03:19:36.710Z,69.07
2018-10-21T03:20:40.274Z,66.53
2018-10-21T03:21:43.856Z,69.57
2018-10-21T03:22:47.591Z,62.80
2018-10-21T03:23:51.179Z,63.70
2018-10-21T03:24:54.767Z,64.47
2018-10-21T03:25:58.708Z,62.70
2018-10-21T03:27:02.371Z,60.47
2018-10-21T03:28:06.120Z,63.90
2018-10-21T03:29:09.841Z,61.20
2018-10-21T03:30:13.396Z,63.73
2018-10-21T03:31:16.982Z,54.40
2018-10-21T03:32:20.571Z,56.27
2018-10-21T03:33:24.351Z,66.63
2018-10-21T03:34:27.761Z,59.80
2018-10-21T03:35:31.539Z,61.20
2018-10-21T03:36:35.131Z,62.27
2018-10-21T03:37:38.769Z,58.13
2018-10-21T03:38:42.306Z,59.57
2018-10-21T03:39:45.907Z,58.00
2018-10-21T03:40:49.467Z,57.07
2018-10-21T03:41:53.139Z,57.80
2018-10-21T03:42:56.715Z,58.87
2018-10-21T03:44:00.286Z,51.30
2018-10-21T03:45:03.929Z,61.20
2018-10-21T03:46:07.521Z,54.33
2018-10-21T03:47:11.172Z,52.43
2018-10-21T03:48:14.752Z,52.83
2018-10-21T03:49:18.327Z,51.53
2018-10-21T03:50:21.907Z,55.50
2018-10-21T03:51:25.547Z,55.57
2018-10-21T03:52:29.107Z,54.17
2018-10-21T03:53:32.683Z,52.00
2018-10-21T03:54:39.222Z,54.23
2018-10-21T03:55:43.335Z,52.73
2018-10-21T03:56:46.979Z,51.90
2018-10-21T03:57:50.551Z,50.87
2018-10-21T03:58:54.152Z,54.47
2018-10-21T03:59:57.714Z,51.63
2018-10-21T04:01:01.300Z,54.13
2018-10-21T04:02:04.887Z,54.73
2018-10-21T04:03:08.780Z,49.00
2018-10-21T04:04:12.402Z,52.60
2018-10-21T04:05:16.010Z,56.20
2018-10-21T04:06:19.563Z,55.37
2018-10-21T04:07:23.150Z,53.97
2018-10-21T04:08:26.735Z,49.07
2018-10-21T04:09:30.306Z,50.27
2018-10-21T04:10:34.111Z,49.10
2018-10-21T04:11:37.688Z,45.73
2018-10-21T04:12:41.350Z,51.10
2018-10-21T04:13:44.899Z,49.60
2018-10-21T04:14:48.468Z,52.20
2018-10-21T04:15:52.056Z,50.03
2018-10-21T04:16:55.658Z,48.13
2018-10-21T04:17:59.231Z,49.50
2018-10-21T04:19:02.888Z,47.37
2018-10-21T04:20:07.260Z,49.07
2018-10-21T04:21:10.827Z,52.93
2018-10-21T04:22:14.554Z,46.87
2018-10-21T04:23:18.038Z,46.83
2018-10-21T04:24:21.608Z,52.30
2018-10-21T04:25:26.276Z,45.80
2018-10-21T04:26:29.823Z,49.33
2018-10-21T04:27:33.441Z,56.17
2018-10-21T04:28:37.019Z,53.90
2018-10-21T04:29:40.592Z,53.63
2018-10-21T04:30:44.198Z,51.37
2018-10-21T04:31:47.771Z,53.67
2018-10-21T04:32:55.760Z,45.93
2018-10-21T04:33:59.353Z,52.47
2018-10-21T04:35:02.906Z,51.53
2018-10-21T04:36:06.780Z,45.37
2018-10-21T04:37:21.888Z,47.53
2018-10-21T04:38:40.763Z,50.43
2018-10-21T04:39:55.846Z,47.47
2018-10-21T04:40:59.379Z,46.23
2018-10-21T04:42:02.956Z,48.17
2018-10-21T04:43:06.626Z,44.83
2018-10-21T04:44:10.176Z,49.73
2018-10-21T04:45:15.178Z,50.50
2018-10-21T04:46:18.758Z,50.50
2018-10-21T04:47:22.328Z,47.73
2018-10-21T04:48:26.012Z,47.23
2018-10-21T04:49:29.562Z,45.03
2018-10-21T04:50:33.138Z,50.10
2018-10-21T04:51:36.712Z,46.33
2018-10-21T04:52:40.324Z,50.30
2018-10-21T04:53:43.901Z,47.77
2018-10-21T04:54:47.489Z,45.73
2018-10-21T04:55:51.144Z,44.77
2018-10-21T04:56:54.731Z,47.07
2018-10-21T04:57:58.268Z,44.57
2018-10-21T04:59:01.831Z,47.73
2018-10-21T05:00:08.971Z,48.83
2018-10-21T05:01:12.543Z,48.80
2018-10-21T05:02:16.167Z,45.40
2018-10-21T05:03:19.727Z,46.53
2018-10-21T05:04:23.290Z,47.60
2018-10-21T05:05:26.892Z,48.23
2018-10-21T05:06:30.451Z,40.80
2018-10-21T05:07:34.124Z,45.47
2018-10-21T05:08:37.709Z,41.87
2018-10-21T05:09:41.272Z,43.10
2018-10-21T05:10:44.854Z,41.70
2018-10-21T05:11:48.419Z,45.23
2018-10-21T05:12:51.983Z,42.83
2018-10-21T05:13:55.564Z,43.93
2018-10-21T05:14:59.148Z,40.83
2018-10-21T05:16:02.788Z,44.77
2018-10-21T05:17:06.276Z,42.40
2018-10-21T05:18:09.847Z,44.77
2018-10-21T05:19:13.427Z,41.63
2018-10-21T05:20:17.015Z,42.70
2018-10-21T05:21:20.693Z,38.30
2018-10-21T05:22:24.235Z,39.90
2018-10-21T05:23:27.807Z,41.27
2018-10-21T05:24:31.381Z,46.83
2018-10-21T05:25:34.964Z,44.33
2018-10-21T05:26:38.997Z,42.83
2018-10-21T05:27:42.789Z,43.93
2018-10-21T05:28:46.350Z,39.93
2018-10-21T05:29:49.926Z,40.60
2018-10-21T05:30:53.620Z,41.37
2018-10-21T05:31:57.348Z,42.83
2018-10-21T05:33:00.920Z,41.37
2018-10-21T05:34:04.900Z,39.60
2018-10-21T05:35:09.978Z,40.57
2018-10-21T05:36:13.595Z,40.93
2018-10-21T05:37:17.162Z,40.63
2018-10-21T05:38:20.800Z,37.93
2018-10-21T05:39:24.335Z,42.03
2018-10-21T05:40:27.939Z,41.97
2018-10-21T05:41:31.490Z,45.33
2018-10-21T05:42:35.067Z,38.70
2018-10-21T05:43:38.655Z,40.87
2018-10-21T05:44:42.347Z,33.40
2018-10-21T05:45:45.932Z,27.20
2018-10-21T05:46:50.794Z,24.93
2018-10-21T05:47:54.291Z,30.83
2018-10-21T05:48:57.884Z,30.67
2018-10-21T05:50:01.523Z,28.40
2018-10-21T05:51:05.258Z,28.40
2018-10-21T05:52:08.894Z,25.43
2018-10-21T05:53:12.406Z,28.13
2018-10-21T05:54:17.011Z,27.23
2018-10-21T05:55:20.584Z,31.67
2018-10-21T05:56:24.163Z,27.07
2018-10-21T05:57:27.735Z,29.37
2018-10-21T05:58:31.408Z,27.77
2018-10-21T05:59:34.891Z,29.43
2018-10-21T06:00:38.655Z,22.93
2018-10-21T06:01:42.699Z,27.57
2018-10-21T06:02:46.357Z,27.00
2018-10-21T06:03:49.891Z,25.33
2018-10-21T06:04:54.143Z,24.80
2018-10-21T06:05:57.686Z,26.20
2018-10-21T06:07:01.259Z,26.87
2018-10-21T06:08:05.211Z,23.30
2018-10-21T06:09:10.085Z,28.80
2018-10-21T06:10:13.743Z,28.63
2018-10-21T06:11:17.335Z,27.57
2018-10-21T06:12:20.886Z,29.97
2018-10-21T06:13:24.463Z,31.73
2018-10-21T06:14:28.039Z,28.27
2018-10-21T06:15:31.627Z,29.23
2018-10-21T06:16:39.475Z,28.30
2018-10-21T06:17:43.056Z,30.50
2018-10-21T06:18:46.619Z,34.90
2018-10-21T06:19:55.410Z,29.97
2018-10-21T06:21:03.519Z,29.50
2018-10-21T06:22:07.232Z,30.67
2018-10-21T06:23:10.792Z,36.53
2018-10-21T06:24:14.364Z,33.00
2018-10-21T06:25:17.953Z,32.80
2018-10-21T06:26:21.535Z,33.13
2018-10-21T06:27:25.108Z,30.07
2018-10-21T06:28:28.675Z,29.77
2018-10-21T06:29:32.291Z,31.63
2018-10-21T06:30:35.838Z,31.20
2018-10-21T06:31:39.410Z,31.00
2018-10-21T06:32:42.986Z,30.80
2018-10-21T06:33:46.686Z,36.50
2018-10-21T06:34:50.148Z,31.83
2018-10-21T06:35:53.736Z,27.53
2018-10-21T06:36:57.310Z,29.03
2018-10-21T06:38:00.883Z,31.93
2018-10-21T06:39:05.073Z,30.50
2018-10-21T06:40:10.184Z,31.20
2018-10-21T06:41:13.771Z,31.60
2018-10-21T06:42:17.358Z,29.97
2018-10-21T06:43:21.011Z,29.30
2018-10-21T06:44:24.562Z,33.20
2018-10-21T06:45:28.285Z,30.63
2018-10-21T06:46:31.755Z,30.00
2018-10-21T06:47:35.526Z,28.33
2018-10-21T06:48:39.095Z,30.97
2018-10-21T06:49:42.674Z,27.10
2018-10-21T06:50:46.380Z,26.50
2018-10-21T06:51:50.040Z,31.57
2018-10-21T06:52:53.591Z,29.57
2018-10-21T06:53:57.179Z,29.00
2018-10-21T06:55:00.804Z,27.57
2018-10-21T06:56:04.594Z,28.53
2018-10-21T06:57:08.302Z,28.30
2018-10-21T06:58:11.758Z,27.37
2018-10-21T06:59:15.355Z,30.40
2018-10-21T07:00:18.987Z,29.33
2018-10-21T07:01:22.555Z,28.87
2018-10-21T07:02:26.135Z,27.20
2018-10-21T07:03:29.727Z,30.93
2018-10-21T07:04:33.425Z,29.50
2018-10-21T07:06:44.419Z,32.37
2018-10-21T07:07:48.271Z,28.90
2018-10-21T07:08:53.063Z,30.73
2018-10-21T07:09:56.755Z,30.03
2018-10-21T07:11:00.306Z,31.27
2018-10-21T07:12:03.935Z,32.13
2018-10-21T07:13:07.581Z,25.47
2018-10-21T07:14:11.142Z,30.60
2018-10-21T07:15:14.776Z,33.67
2018-10-21T07:16:18.410Z,30.83
2018-10-21T07:17:21.921Z,35.57
2018-10-21T07:18:25.691Z,31.73
2018-10-21T07:19:29.303Z,32.43
2018-10-21T07:20:32.904Z,29.93
2018-10-21T07:21:36.545Z,29.30
2018-10-21T07:22:40.667Z,30.43
2018-10-21T07:23:44.454Z,32.90
2018-10-21T07:24:48.071Z,32.57
2018-10-21T07:25:51.656Z,31.80
2018-10-21T07:26:55.238Z,37.50
2018-10-21T07:27:58.884Z,38.70
2018-10-21T07:29:02.424Z,37.20
2018-10-21T07:30:07.381Z,39.67
2018-10-21T07:31:10.942Z,36.80
2018-10-21T07:32:14.539Z,42.03
2018-10-21T07:33:18.140Z,38.60
2018-10-21T07:34:21.731Z,39.63
2018-10-21T07:35:25.326Z,40.80
2018-10-21T07:36:29.181Z,42.13
2018-10-21T07:37:32.584Z,42.60
2018-10-21T07:38:36.187Z,39.40
2018-10-21T07:39:39.780Z,40.93
2018-10-21T07:40:43.663Z,37.17
2018-10-21T07:41:47.250Z,46.67
2018-10-21T07:42:50.857Z,44.27
2018-10-21T07:43:54.467Z,47.07
2018-10-21T07:44:58.011Z,45.73
2018-10-21T07:46:01.635Z,45.33
2018-10-21T07:47:05.279Z,46.90
2018-10-21T07:48:08.862Z,50.50
2018-10-21T07:49:12.507Z,45.00
2018-10-21T07:50:16.057Z,45.00
2018-10-21T07:51:19.706Z,43.90
2018-10-21T07:52:23.270Z,46.03
2018-10-21T07:53:26.861Z,46.40
2018-10-21T07:54:30.447Z,48.80
2018-10-21T07:55:34.081Z,46.23
2018-10-21T07:56:37.672Z,46.20
2018-10-21T07:57:41.263Z,47.20
2018-10-21T07:58:44.936Z,47.20
2018-10-21T07:59:49.293Z,49.63
2018-10-21T08:00:52.926Z,51.43
2018-10-21T08:01:56.481Z,48.73
2018-10-21T08:03:00.076Z,54.80
2018-10-21T08:04:03.720Z,54.67
2018-10-21T08:05:11.907Z,54.87
2018-10-21T08:06:32.542Z,50.63
2018-10-21T08:07:47.655Z,46.97
2018-10-21T08:08:51.311Z,51.70
2018-10-21T08:09:54.968Z,49.67
2018-10-21T08:10:58.507Z,55.33
2018-10-21T08:12:02.115Z,47.63
2018-10-21T08:13:05.992Z,46.47
2018-10-21T08:14:09.575Z,46.03
2018-10-21T08:15:13.216Z,44.27
2018-10-21T08:16:16.793Z,50.83
2018-10-21T08:17:20.349Z,53.13
2018-10-21T08:18:23.939Z,46.60
2018-10-21T08:19:27.540Z,43.70
2018-10-21T08:20:31.150Z,45.27
2018-10-21T08:21:34.711Z,46.73
2018-10-21T08:22:38.303Z,47.67
2018-10-21T08:23:41.893Z,45.27
2018-10-21T08:24:45.482Z,46.87
2018-10-21T08:25:50.281Z,44.03
2018-10-21T08:26:53.910Z,44.37
2018-10-21T08:27:57.564Z,44.27
2018-10-21T08:29:01.088Z,39.73
2018-10-21T08:30:04.983Z,48.30
2018-10-21T08:31:08.568Z,44.17
2018-10-21T08:32:12.159Z,42.10
2018-10-21T08:33:15.873Z,46.53
2018-10-21T08:34:19.434Z,44.60
2018-10-21T08:35:23.363Z,46.70
2018-10-21T08:36:26.956Z,46.03
2018-10-21T08:37:30.513Z,42.83
2018-10-21T08:38:34.291Z,41.00
2018-10-21T08:39:37.859Z,41.27
2018-10-21T08:40:41.440Z,45.93
2018-10-21T08:41:45.023Z,44.00
2018-10-21T08:42:48.596Z,40.57
2018-10-21T08:43:52.175Z,45.00
2018-10-21T08:44:55.747Z,44.10
2018-10-21T08:45:59.387Z,43.97
2018-10-21T08:47:02.895Z,37.47
2018-10-21T08:48:06.484Z,32.13
2018-10-21T08:49:10.127Z,33.87
2018-10-21T08:50:14.296Z,34.50
2018-10-21T08:51:17.878Z,41.80
2018-10-21T08:52:21.728Z,32.80
2018-10-21T08:53:25.275Z,37.07
2018-10-21T08:54:28.964Z,32.70
2018-10-21T08:55:32.531Z,33.93
2018-10-21T08:56:36.100Z,32.40
2018-10-21T08:57:40.139Z,34.33
2018-10-21T08:58:43.719Z,32.87
2018-10-21T08:59:47.372Z,31.83
2018-10-21T09:00:50.962Z,35.63
2018-10-21T09:01:54.536Z,34.00
2018-10-21T09:02:58.071Z,32.83
2018-10-21T09:04:01.707Z,35.10
2018-10-21T09:05:06.744Z,33.60
2018-10-21T09:06:10.348Z,35.67
2018-10-21T09:07:13.961Z,34.30
2018-10-21T09:08:17.468Z,35.60
2018-10-21T09:09:21.042Z,33.70
2018-10-21T09:10:24.624Z,36.97
2018-10-21T09:11:28.192Z,35.27
2018-10-21T09:12:31.786Z,37.90
2018-10-21T09:13:35.331Z,37.27
2018-10-21T09:14:38.898Z,35.90
2018-10-21T09:15:42.471Z,40.40
2018-10-21T09:16:46.120Z,40.53
2018-10-21T09:17:49.656Z,36.60
2018-10-21T09:18:53.295Z,34.67
2018-10-21T09:21:04.947Z,43.07
2018-10-21T09:22:08.576Z,38.47
2018-10-21T09:23:12.197Z,37.07
2018-10-21T09:24:15.761Z,39.60
2018-10-21T09:25:19.352Z,37.37
2018-10-21T09:26:22.892Z,39.27
2018-10-21T09:27:26.526Z,38.07
2018-10-21T09:28:30.094Z,40.80
2018-10-21T09:29:33.738Z,38.57
2018-10-21T09:30:37.329Z,45.13
2018-10-21T09:31:40.867Z,38.67
2018-10-21T09:32:44.452Z,41.70
2018-10-21T09:33:48.028Z,38.33
2018-10-21T09:34:51.644Z,37.47
2018-10-21T09:35:55.219Z,41.53
2018-10-21T09:36:58.823Z,41.07
2018-10-21T09:38:02.388Z,39.83
2018-10-21T09:39:08.987Z,36.10
2018-10-21T09:40:15.350Z,41.33
2018-10-21T09:41:18.994Z,39.57
2018-10-21T09:42:22.572Z,36.80
2018-10-21T09:43:26.169Z,41.00
2018-10-21T09:44:29.747Z,34.57
2018-10-21T09:45:33.327Z,42.20
2018-10-21T09:46:36.945Z,41.23
2018-10-21T09:47:40.615Z,43.23
2018-10-21T09:48:44.306Z,33.60
2018-10-21T09:49:47.907Z,34.73
2018-10-21T09:50:51.496Z,41.30
2018-10-21T09:51:55.117Z,42.17
2018-10-21T09:52:58.670Z,40.77
2018-10-21T09:54:02.278Z,40.20
2018-10-21T09:55:11.259Z,36.30
2018-10-21T09:56:14.787Z,39.87
2018-10-21T09:57:18.452Z,38.50
2018-10-21T09:58:22.099Z,38.33
2018-10-21T09:59:25.634Z,37.53
2018-10-21T10:00:34.538Z,40.40
2018-10-21T10:02:45.375Z,40.17
2018-10-21T10:03:49.012Z,39.30
2018-10-21T10:04:52.540Z,39.27
2018-10-21T10:05:56.138Z,37.70
2018-10-21T10:06:59.839Z,40.07
2018-10-21T10:08:03.338Z,35.17
2018-10-21T10:09:09.007Z,39.27
2018-10-21T10:10:12.639Z,35.43
2018-10-21T10:11:16.239Z,39.40
2018-10-21T10:12:19.829Z,39.40
2018-10-21T10:13:23.415Z,39.20
2018-10-21T10:14:27.015Z,34.70
2018-10-21T10:15:30.617Z,35.50
2018-10-21T10:16:34.352Z,35.93
2018-10-21T10:17:38.110Z,35.70
2018-10-21T10:18:41.801Z,45.43
2018-10-21T10:19:45.425Z,36.77
2018-10-21T10:20:49.075Z,34.87
2018-10-21T10:21:52.677Z,35.77
2018-10-21T10:22:56.279Z,39.60
2018-10-21T10:23:59.966Z,33.87
2018-10-21T10:25:03.569Z,34.83
2018-10-21T10:26:07.111Z,37.47
2018-10-21T10:27:10.687Z,38.93
2018-10-21T10:28:14.312Z,37.87
2018-10-21T10:29:17.856Z,36.17
2018-10-21T10:30:21.452Z,35.73
2018-10-21T10:31:25.168Z,38.30
2018-10-21T10:32:28.758Z,34.97
2018-10-21T10:33:32.334Z,39.60
2018-10-21T10:34:35.916Z,37.10
2018-10-21T10:35:39.523Z,36.87
2018-10-21T10:36:43.119Z,38.00
2018-10-21T10:37:46.702Z,40.40
2018-10-21T10:38:50.513Z,35.73
2018-10-21T10:39:54.140Z,41.33
2018-10-21T10:40:57.695Z,38.23
2018-10-21T10:42:01.368Z,36.37
2018-10-21T10:43:04.863Z,37.10
2018-10-21T10:44:08.427Z,35.73
2018-10-21T10:45:12.011Z,41.27
2018-10-21T10:46:15.666Z,39.63
2018-10-21T10:47:19.283Z,43.53
2018-10-21T10:48:22.872Z,40.20
2018-10-21T10:49:26.567Z,40.30
2018-10-21T10:50:30.160Z,43.77
2018-10-21T10:51:33.751Z,33.90
2018-10-21T10:52:37.690Z,40.63
2018-10-21T10:53:41.376Z,43.37
2018-10-21T10:54:45.027Z,37.80
2018-10-21T10:55:51.507Z,36.87
2018-10-21T10:56:55.284Z,36.83
2018-10-21T10:57:58.910Z,41.10
2018-10-21T10:59:02.467Z,35.73
2018-10-21T11:00:08.182Z,39.67
2018-10-21T11:01:11.666Z,40.77
2018-10-21T11:02:15.185Z,38.90
2018-10-21T11:03:18.751Z,37.03
2018-10-21T11:04:22.386Z,38.33
2018-10-21T11:05:25.979Z,40.60
2018-10-21T11:06:29.552Z,38.13
2018-10-21T11:07:33.135Z,37.13
2018-10-21T11:08:36.717Z,37.93
2018-10-21T11:09:40.319Z,39.90
2018-10-21T11:10:43.915Z,35.17
2018-10-21T11:11:47.505Z,35.17
2018-10-21T11:12:51.188Z,36.20
2018-10-21T11:13:54.748Z,39.20
2018-10-21T11:14:58.335Z,42.57
2018-10-21T11:16:02.029Z,31.77
2018-10-21T11:17:05.538Z,33.67
2018-10-21T11:18:09.141Z,34.70
2018-10-21T11:19:12.788Z,34.80
2018-10-21T11:20:16.323Z,36.10
2018-10-21T11:21:19.910Z,35.57
2018-10-21T11:22:23.520Z,33.37
2018-10-21T11:23:27.045Z,36.07
2018-10-21T11:24:30.628Z,33.97
2018-10-21T11:25:34.228Z,39.00
2018-10-21T11:26:37.807Z,34.43
2018-10-21T11:27:41.410Z,32.03
2018-10-21T11:28:45.045Z,33.10
2018-10-21T11:29:49.009Z,36.50
2018-10-21T11:30:52.616Z,31.90
2018-10-21T11:31:56.228Z,36.70
2018-10-21T11:32:59.850Z,33.97
2018-10-21T11:34:03.469Z,34.57
2018-10-21T11:35:07.143Z,34.33
2018-10-21T11:36:10.752Z,35.30
2018-10-21T11:37:14.456Z,34.30
2018-10-21T11:38:18.077Z,30.90
2018-10-21T11:39:21.645Z,34.43
2018-10-21T11:40:25.288Z,36.53
2018-10-21T11:41:28.866Z,36.17
2018-10-21T11:42:32.459Z,34.63
2018-10-21T11:43:36.048Z,34.53
2018-10-21T11:44:39.629Z,31.77
2018-10-21T11:45:43.559Z,35.03
2018-10-21T11:46:47.067Z,34.77
2018-10-21T11:47:50.695Z,32.33
2018-10-21T11:48:54.238Z,30.63
2018-10-21T11:49:57.816Z,33.90
2018-10-21T11:51:01.390Z,35.67
2018-10-21T11:52:05.188Z,34.33
2018-10-21T11:53:08.719Z,32.83
2018-10-21T11:54:12.315Z,34.37
2018-10-21T11:55:15.987Z,29.87
2018-10-21T11:56:19.622Z,33.23
2018-10-21T11:57:23.463Z,31.83
2018-10-21T11:58:27.039Z,31.40
2018-10-21T11:59:30.614Z,32.57
2018-10-21T12:00:34.208Z,30.83
2018-10-21T12:01:37.791Z,33.10
2018-10-21T12:02:41.364Z,32.07
2018-10-21T12:03:45.831Z,31.33
2018-10-21T12:04:49.459Z,33.40
2018-10-21T12:05:53.078Z,31.80
2018-10-21T12:06:56.733Z,37.20
2018-10-21T12:08:00.262Z,37.77
2018-10-21T12:09:06.522Z,32.33
2018-10-21T12:10:10.221Z,32.00
2018-10-21T12:11:13.686Z,30.93
2018-10-21T12:12:17.323Z,32.07
2018-10-21T12:13:20.899Z,35.97
2018-10-21T12:14:24.496Z,32.77
2018-10-21T12:15:28.139Z,32.40
2018-10-21T12:16:31.703Z,32.53
2018-10-21T12:17:35.336Z,30.27
2018-10-21T12:18:39.035Z,29.13
2018-10-21T12:19:42.658Z,33.63
2018-10-21T12:20:46.187Z,31.07
2018-10-21T12:21:49.823Z,28.60
2018-10-21T12:22:53.455Z,31.93
2018-10-21T12:23:57.054Z,29.33
2018-10-21T12:25:00.649Z,32.53
2018-10-21T12:26:04.445Z,28.93
2018-10-21T12:27:08.215Z,31.53
2018-10-21T12:28:11.848Z,28.00
2018-10-21T12:29:15.541Z,26.60
2018-10-21T12:30:19.132Z,28.17
2018-10-21T12:31:22.735Z,28.80
2018-10-21T12:32:26.336Z,33.63
2018-10-21T12:33:32.932Z,27.70
2018-10-21T12:34:36.607Z,27.13
2018-10-21T12:35:40.170Z,31.97
2018-10-21T12:36:43.790Z,32.03
2018-10-21T12:37:47.441Z,29.87
2018-10-21T12:38:51.077Z,30.03
2018-10-21T12:39:54.725Z,28.87
2018-10-21T12:40:58.309Z,29.30
2018-10-21T12:42:01.868Z,27.93
2018-10-21T12:43:05.624Z,27.83
2018-10-21T12:44:09.231Z,32.43
2018-10-21T12:45:12.895Z,27.33
2018-10-21T12:46:16.520Z,28.10
2018-10-21T12:47:20.091Z,27.43
2018-10-21T12:48:23.727Z,25.43
2018-10-21T12:49:27.441Z,26.03
2018-10-21T12:50:31.018Z,27.53
2018-10-21T12:51:34.915Z,24.27
2018-10-21T12:52:38.519Z,26.90
2018-10-21T12:53:42.132Z,24.27
2018-10-21T12:54:45.739Z,25.00
2018-10-21T12:55:50.266Z,25.47
2018-10-21T12:56:53.899Z,26.97
2018-10-21T12:57:57.573Z,23.63
2018-10-21T12:59:01.139Z,25.97
2018-10-21T13:00:04.867Z,24.73
2018-10-21T13:01:08.983Z,24.23
2018-10-21T13:02:12.683Z,26.47
2018-10-21T13:03:16.423Z,23.63
2018-10-21T13:04:20.200Z,24.60
2018-10-21T13:05:23.752Z,26.17
2018-10-21T13:06:27.411Z,24.47
2018-10-21T13:07:31.235Z,29.47
2018-10-21T13:08:34.786Z,23.80
2018-10-21T13:09:38.588Z,27.17
2018-10-21T13:10:42.179Z,24.20
2018-10-21T13:11:45.785Z,27.30
2018-10-21T13:12:49.527Z,24.77
2018-10-21T13:13:53.172Z,24.43
2018-10-21T13:14:56.776Z,30.57
2018-10-21T13:16:00.379Z,27.07
2018-10-21T13:17:04.342Z,27.33
2018-10-21T13:18:07.931Z,24.63
2018-10-21T13:19:11.690Z,27.17
2018-10-21T13:20:15.188Z,25.23
2018-10-21T13:21:18.802Z,25.87
2018-10-21T13:22:22.504Z,26.67
2018-10-21T13:23:26.103Z,25.93
2018-10-21T13:24:29.690Z,21.77
2018-10-21T13:25:33.297Z,22.83
2018-10-21T13:26:36.873Z,23.50
2018-10-21T13:27:40.446Z,21.40
2018-10-21T13:28:44.103Z,25.80
2018-10-21T13:29:47.624Z,25.43
2018-10-21T13:30:51.218Z,24.07
2018-10-21T13:31:54.848Z,22.17
2018-10-21T13:32:58.442Z,27.20
2018-10-21T13:34:02.129Z,28.53
2018-10-21T13:35:06.330Z,23.60
2018-10-21T13:36:09.928Z,24.73
2018-10-21T13:37:13.582Z,25.43
2018-10-21T13:38:17.256Z,24.70
2018-10-21T13:39:20.832Z,23.57
2018-10-21T13:40:24.821Z,28.43
2018-10-21T13:41:28.345Z,23.17
2018-10-21T13:42:32.016Z,23.33
2018-10-21T13:43:35.603Z,23.10
2018-10-21T13:44:39.243Z,25.60
2018-10-21T13:45:43.029Z,27.03
2018-10-21T13:46:46.596Z,27.37